sensor_id;sensor_type;location;lat;lon;timestamp;pressure;altitude;pressure_sealevel;temperature;humidity
33153;BME280;19509;43.862;26.176;2023-04-02T00:06:43;99501.25;;;8.48;91.79
33153;BME280;19509;43.862;26.176;2023-04-02T00:11:40;99510.72;;;8.50;92.10
33153;BME280;19509;43.862;26.176;2023-04-02T00:14:32;99502.66;;;8.50;92.50
33153;BME280;19509;43.862;26.176;2023-04-02T00:17:01;99505.97;;;8.52;91.83
33153;BME280;19509;43.862;26.176;2023-04-02T00:19:35;99500.00;;;8.50;91.34
33153;BME280;19509;43.862;26.176;2023-04-02T00:22:05;99495.59;;;8.56;91.38
33153;BME280;19509;43.862;26.176;2023-04-02T00:24:32;99501.53;;;8.58;90.91
33153;BME280;19509;43.862;26.176;2023-04-02T00:26:59;99502.72;;;8.62;90.67
33153;BME280;19509;43.862;26.176;2023-04-02T00:29:24;99509.53;;;8.65;90.76
33153;BME280;19509;43.862;26.176;2023-04-02T00:31:51;99503.72;;;8.68;90.63
33153;BME280;19509;43.862;26.176;2023-04-02T00:34:36;99517.34;;;8.66;89.53
33153;BME280;19509;43.862;26.176;2023-04-02T00:37:03;99503.72;;;8.68;89.33
33153;BME280;19509;43.862;26.176;2023-04-02T00:39:31;99503.47;;;8.69;88.93
33153;BME280;19509;43.862;26.176;2023-04-02T00:41:59;99505.72;;;8.72;89.07
33153;BME280;19509;43.862;26.176;2023-04-02T00:44:37;99499.91;;;8.75;89.10
33153;BME280;19509;43.862;26.176;2023-04-02T00:47:34;99502.81;;;8.74;88.81
33153;BME280;19509;43.862;26.176;2023-04-02T00:52:40;99509.97;;;8.80;88.75
33153;BME280;19509;43.862;26.176;2023-04-02T00:55:21;99506.00;;;8.83;88.31
33153;BME280;19509;43.862;26.176;2023-04-02T00:57:49;99514.88;;;8.83;87.70
33153;BME280;19509;43.862;26.176;2023-04-02T01:06:14;99515.84;;;8.89;86.99
33153;BME280;19509;43.862;26.176;2023-04-02T01:14:19;99507.13;;;8.93;86.74
33153;BME280;19509;43.862;26.176;2023-04-02T01:16:57;99501.53;;;8.95;86.45
33153;BME280;19509;43.862;26.176;2023-04-02T01:22:50;99512.38;;;9.00;86.01
33153;BME280;19509;43.862;26.176;2023-04-02T01:25:49;99506.19;;;8.99;86.41
33153;BME280;19509;43.862;26.176;2023-04-02T01:28:23;99509.34;;;8.96;85.73
33153;BME280;19509;43.862;26.176;2023-04-02T01:30:54;99510.19;;;8.97;86.51
33153;BME280;19509;43.862;26.176;2023-04-02T01:33:29;99513.44;;;8.99;86.41
33153;BME280;19509;43.862;26.176;2023-04-02T01:36:04;99510.53;;;9.00;86.21
33153;BME280;19509;43.862;26.176;2023-04-02T01:38:40;99508.66;;;9.01;86.12
33153;BME280;19509;43.862;26.176;2023-04-02T01:41:22;99509.69;;;9.00;86.30
33153;BME280;19509;43.862;26.176;2023-04-02T01:44:07;99507.50;;;8.97;86.44
33153;BME280;19509;43.862;26.176;2023-04-02T01:46:35;99501.16;;;8.91;86.48
33153;BME280;19509;43.862;26.176;2023-04-02T01:49:13;99504.88;;;8.90;86.96
33153;BME280;19509;43.862;26.176;2023-04-02T01:51:42;99510.72;;;8.87;87.58
33153;BME280;19509;43.862;26.176;2023-04-02T01:54:09;99522.69;;;8.85;87.70
33153;BME280;19509;43.862;26.176;2023-04-02T01:56:35;99522.78;;;8.78;87.56
33153;BME280;19509;43.862;26.176;2023-04-02T01:59:02;99531.00;;;8.83;87.98
33153;BME280;19509;43.862;26.176;2023-04-02T02:01:50;99522.94;;;8.83;87.59
33153;BME280;19509;43.862;26.176;2023-04-02T02:04:17;99519.41;;;8.83;87.51
33153;BME280;19509;43.862;26.176;2023-04-02T02:06:44;99522.81;;;8.90;88.16
33153;BME280;19509;43.862;26.176;2023-04-02T02:09:21;99531.94;;;8.89;87.59
33153;BME280;19509;43.862;26.176;2023-04-02T02:11:48;99530.44;;;8.93;87.85
33153;BME280;19509;43.862;26.176;2023-04-02T02:14:21;99535.34;;;8.96;87.50
33153;BME280;19509;43.862;26.176;2023-04-02T02:16:47;99529.16;;;8.95;87.25
33153;BME280;19509;43.862;26.176;2023-04-02T02:19:24;99526.47;;;8.95;86.80
33153;BME280;19509;43.862;26.176;2023-04-02T02:21:53;99522.53;;;8.98;86.72
33153;BME280;19509;43.862;26.176;2023-04-02T02:24:31;99527.19;;;8.91;86.98
33153;BME280;19509;43.862;26.176;2023-04-02T02:29:34;99530.66;;;8.91;87.16
33153;BME280;19509;43.862;26.176;2023-04-02T02:32:03;99526.94;;;8.92;86.59
33153;BME280;19509;43.862;26.176;2023-04-02T02:34:39;99534.97;;;8.92;86.52
33153;BME280;19509;43.862;26.176;2023-04-02T02:37:25;99526.94;;;8.92;86.11
33153;BME280;19509;43.862;26.176;2023-04-02T02:39:55;99541.16;;;8.93;86.53
33153;BME280;19509;43.862;26.176;2023-04-02T02:42:39;99547.50;;;8.98;86.21
33153;BME280;19509;43.862;26.176;2023-04-02T02:45:28;99535.97;;;8.98;85.65
33153;BME280;19509;43.862;26.176;2023-04-02T02:47:57;99547.50;;;8.98;85.86
33153;BME280;19509;43.862;26.176;2023-04-02T02:50:26;99553.69;;;8.99;85.42
33153;BME280;19509;43.862;26.176;2023-04-02T02:52:58;99560.09;;;8.98;86.03
33153;BME280;19509;43.862;26.176;2023-04-02T02:55:28;99551.00;;;8.99;86.45
33153;BME280;19509;43.862;26.176;2023-04-02T02:58:15;99549.66;;;8.90;87.20
33153;BME280;19509;43.862;26.176;2023-04-02T03:00:42;99552.66;;;8.82;87.61
33153;BME280;19509;43.862;26.176;2023-04-02T03:03:23;99557.41;;;8.80;88.20
33153;BME280;19509;43.862;26.176;2023-04-02T03:05:59;99556.59;;;8.79;87.81
33153;BME280;19509;43.862;26.176;2023-04-02T03:08:40;99557.41;;;8.80;87.94
33153;BME280;19509;43.862;26.176;2023-04-02T03:14:38;99568.16;;;8.80;88.57
33153;BME280;19509;43.862;26.176;2023-04-02T03:19:53;99562.56;;;8.81;88.07
33153;BME280;19509;43.862;26.176;2023-04-02T03:22:33;99563.38;;;8.82;87.31
33153;BME280;19509;43.862;26.176;2023-04-02T03:25:08;99565.38;;;8.86;87.39
33153;BME280;19509;43.862;26.176;2023-04-02T03:27:43;99569.56;;;8.82;87.60
33153;BME280;19509;43.862;26.176;2023-04-02T03:30:22;99571.81;;;8.85;87.84
33153;BME280;19509;43.862;26.176;2023-04-02T03:32:53;99571.59;;;8.87;87.13
33153;BME280;19509;43.862;26.176;2023-04-02T03:35:34;99577.78;;;8.87;86.64
33153;BME280;19509;43.862;26.176;2023-04-02T03:38:10;99579.78;;;8.92;87.11
33153;BME280;19509;43.862;26.176;2023-04-02T03:41:00;99578.16;;;8.91;86.56
33153;BME280;19509;43.862;26.176;2023-04-02T03:43:31;99581.03;;;8.89;86.92
33153;BME280;19509;43.862;26.176;2023-04-02T03:46:28;99588.06;;;8.90;86.66
33153;BME280;19509;43.862;26.176;2023-04-02T03:49:08;99587.03;;;8.91;86.82
33153;BME280;19509;43.862;26.176;2023-04-02T03:54:14;99577.25;;;8.97;86.55
33153;BME280;19509;43.862;26.176;2023-04-02T03:56:40;99585.53;;;8.95;86.49
33153;BME280;19509;43.862;26.176;2023-04-02T04:04:20;99593.38;;;8.97;86.69
33153;BME280;19509;43.862;26.176;2023-04-02T04:06:49;99602.44;;;8.96;86.84
33153;BME280;19509;43.862;26.176;2023-04-02T04:09:24;99597.81;;;8.85;87.47
33153;BME280;19509;43.862;26.176;2023-04-02T04:12:04;99592.59;;;8.90;87.66
33153;BME280;19509;43.862;26.176;2023-04-02T04:14:34;99601.94;;;8.87;87.78
33153;BME280;19509;43.862;26.176;2023-04-02T04:19:54;99606.09;;;8.83;87.85
33153;BME280;19509;43.862;26.176;2023-04-02T04:22:25;99606.31;;;8.82;89.18
33153;BME280;19509;43.862;26.176;2023-04-02T04:25:02;99604.06;;;8.79;88.72
33153;BME280;19509;43.862;26.176;2023-04-02T04:27:31;99604.31;;;8.77;89.48
33153;BME280;19509;43.862;26.176;2023-04-02T04:32:57;99611.44;;;8.65;90.69
33153;BME280;19509;43.862;26.176;2023-04-02T04:35:33;99609.56;;;8.65;90.61
33153;BME280;19509;43.862;26.176;2023-04-02T04:38:20;99614.94;;;8.65;91.49
33153;BME280;19509;43.862;26.176;2023-04-02T04:41:03;99618.22;;;8.67;91.74
33153;BME280;19509;43.862;26.176;2023-04-02T04:43:47;99613.69;;;8.68;91.53
33153;BME280;19509;43.862;26.176;2023-04-02T04:46:22;99602.41;;;8.59;91.06
33153;BME280;19509;43.862;26.176;2023-04-02T04:48:59;99614.34;;;8.63;91.72
33153;BME280;19509;43.862;26.176;2023-04-02T04:51:31;99632.22;;;8.69;91.52
33153;BME280;19509;43.862;26.176;2023-04-02T04:53:59;99633.28;;;8.68;90.95
33153;BME280;19509;43.862;26.176;2023-04-02T04:56:27;99642.50;;;8.72;91.06
33153;BME280;19509;43.862;26.176;2023-04-02T04:59:30;99649.16;;;8.70;91.09
33153;BME280;19509;43.862;26.176;2023-04-02T05:02:15;99651.16;;;8.74;90.97
33153;BME280;19509;43.862;26.176;2023-04-02T05:04:46;99648.72;;;8.73;91.53
33153;BME280;19509;43.862;26.176;2023-04-02T05:07:19;99663.59;;;8.69;91.01
33153;BME280;19509;43.862;26.176;2023-04-02T05:21:11;99682.00;;;9.09;90.14
33153;BME280;19509;43.862;26.176;2023-04-02T05:31:39;99692.97;;;9.26;89.00
33153;BME280;19509;43.862;26.176;2023-04-02T05:34:07;99690.72;;;9.22;88.61
33153;BME280;19509;43.862;26.176;2023-04-02T05:36:33;99698.31;;;9.26;88.33
33153;BME280;19509;43.862;26.176;2023-04-02T05:38:59;99701.91;;;9.38;88.37
33153;BME280;19509;43.862;26.176;2023-04-02T05:42:16;99707.44;;;9.43;87.53
33153;BME280;19509;43.862;26.176;2023-04-02T05:44:37;99696.19;;;9.34;87.42
33153;BME280;19509;43.862;26.176;2023-04-02T05:47:16;99712.44;;;9.39;87.43
33153;BME280;19509;43.862;26.176;2023-04-02T05:49:51;99715.09;;;9.39;86.56
33153;BME280;19509;43.862;26.176;2023-04-02T05:52:28;99719.22;;;9.42;86.52
33153;BME280;19509;43.862;26.176;2023-04-02T05:54:57;99728.03;;;9.49;85.74
33153;BME280;19509;43.862;26.176;2023-04-02T05:57:36;99729.88;;;9.48;85.21
33153;BME280;19509;43.862;26.176;2023-04-02T06:00:07;99741.38;;;9.56;85.45
33153;BME280;19509;43.862;26.176;2023-04-02T06:02:49;99738.53;;;9.51;84.91
33153;BME280;19509;43.862;26.176;2023-04-02T06:05:23;99753.53;;;9.58;84.88
33153;BME280;19509;43.862;26.176;2023-04-02T06:07:56;99746.44;;;9.64;84.26
33153;BME280;19509;43.862;26.176;2023-04-02T06:10:29;99752.19;;;9.67;84.33
33153;BME280;19509;43.862;26.176;2023-04-02T06:12:59;99750.03;;;9.76;84.44
33153;BME280;19509;43.862;26.176;2023-04-02T06:15:30;99752.31;;;9.91;83.26
33153;BME280;19509;43.862;26.176;2023-04-02T06:18:05;99763.13;;;10.03;83.33
33153;BME280;19509;43.862;26.176;2023-04-02T06:20:32;99763.53;;;10.18;82.26
33153;BME280;19509;43.862;26.176;2023-04-02T06:23:01;99765.38;;;10.36;82.13
33153;BME280;19509;43.862;26.176;2023-04-02T06:25:38;99765.88;;;10.45;81.21
33153;BME280;19509;43.862;26.176;2023-04-02T06:28:07;99760.13;;;10.41;80.59
33153;BME280;19509;43.862;26.176;2023-04-02T06:30:38;99752.06;;;10.29;80.33
33153;BME280;19509;43.862;26.176;2023-04-02T06:33:05;99772.53;;;10.42;80.08
33153;BME280;19509;43.862;26.176;2023-04-02T06:35:38;99771.66;;;10.60;80.07
33153;BME280;19509;43.862;26.176;2023-04-02T06:38:06;99768.75;;;10.73;79.67
33153;BME280;19509;43.862;26.176;2023-04-02T06:40:43;99769.25;;;10.70;80.07
33153;BME280;19509;43.862;26.176;2023-04-02T06:43:24;99779.06;;;10.76;79.91
33153;BME280;19509;43.862;26.176;2023-04-02T06:45:58;99777.31;;;10.82;79.07
33153;BME280;19509;43.862;26.176;2023-04-02T06:48:26;99776.16;;;10.89;78.57
33153;BME280;19509;43.862;26.176;2023-04-02T06:50:58;99788.13;;;11.05;79.32
33153;BME280;19509;43.862;26.176;2023-04-02T06:53:38;99784.25;;;11.13;78.99
33153;BME280;19509;43.862;26.176;2023-04-02T06:58:46;99791.63;;;11.53;78.69
33153;BME280;19509;43.862;26.176;2023-04-02T07:01:17;99793.16;;;11.49;77.85
33153;BME280;19509;43.862;26.176;2023-04-02T07:03:43;99799.72;;;11.53;78.74
33153;BME280;19509;43.862;26.176;2023-04-02T07:06:14;99805.94;;;11.42;77.83
33153;BME280;19509;43.862;26.176;2023-04-02T07:08:40;99809.91;;;11.39;78.56
33153;BME280;19509;43.862;26.176;2023-04-02T07:11:05;99812.84;;;11.26;78.25
33153;BME280;19509;43.862;26.176;2023-04-02T07:13:31;99813.09;;;11.24;78.19
33153;BME280;19509;43.862;26.176;2023-04-02T07:15:56;99820.78;;;11.21;77.84
33153;BME280;19509;43.862;26.176;2023-04-02T07:18:28;99811.53;;;11.17;77.98
33153;BME280;19509;43.862;26.176;2023-04-02T07:20:54;99817.38;;;11.13;78.42
33153;BME280;19509;43.862;26.176;2023-04-02T07:23:20;99817.03;;;10.98;78.12
33153;BME280;19509;43.862;26.176;2023-04-02T07:25:47;99819.56;;;10.81;78.56
33153;BME280;19509;43.862;26.176;2023-04-02T07:28:14;99814.41;;;10.80;79.19
33153;BME280;19509;43.862;26.176;2023-04-02T07:30:40;99824.69;;;10.83;79.08
33153;BME280;19509;43.862;26.176;2023-04-02T07:33:06;99823.06;;;10.70;79.47
33153;BME280;19509;43.862;26.176;2023-04-02T07:35:31;99819.63;;;10.63;79.70
33153;BME280;19509;43.862;26.176;2023-04-02T07:37:57;99824.31;;;10.68;80.14
33153;BME280;19509;43.862;26.176;2023-04-02T07:40:23;99826.91;;;10.74;79.51
33153;BME280;19509;43.862;26.176;2023-04-02T07:42:48;99833.47;;;10.78;79.97
33153;BME280;19509;43.862;26.176;2023-04-02T07:45:14;99831.97;;;10.82;79.54
33153;BME280;19509;43.862;26.176;2023-04-02T07:47:41;99831.28;;;10.87;79.46
33153;BME280;19509;43.862;26.176;2023-04-02T07:50:07;99843.94;;;10.98;79.17
33153;BME280;19509;43.862;26.176;2023-04-02T07:52:37;99834.72;;;11.06;78.55
33153;BME280;19509;43.862;26.176;2023-04-02T07:55:03;99841.16;;;11.17;79.00
33153;BME280;19509;43.862;26.176;2023-04-02T07:57:29;99849.84;;;11.30;78.85
33153;BME280;19509;43.862;26.176;2023-04-02T07:59:54;99859.22;;;11.40;79.67
33153;BME280;19509;43.862;26.176;2023-04-02T08:02:21;99859.56;;;11.43;79.26
33153;BME280;19509;43.862;26.176;2023-04-02T08:04:48;99857.22;;;11.47;79.16
33153;BME280;19509;43.862;26.176;2023-04-02T08:07:15;99856.41;;;11.70;78.52
33153;BME280;19509;43.862;26.176;2023-04-02T08:09:41;99844.25;;;11.55;77.30
33153;BME280;19509;43.862;26.176;2023-04-02T08:12:06;99859.00;;;11.88;78.03
33153;BME280;19509;43.862;26.176;2023-04-02T08:14:32;99859.91;;;12.05;77.67
33153;BME280;19509;43.862;26.176;2023-04-02T08:16:57;99865.41;;;11.99;77.64
33153;BME280;19509;43.862;26.176;2023-04-02T08:19:23;99876.78;;;12.13;76.75
33153;BME280;19509;43.862;26.176;2023-04-02T08:21:49;99873.88;;;12.02;76.56
33153;BME280;19509;43.862;26.176;2023-04-02T08:24:19;99887.84;;;11.99;77.08
33153;BME280;19509;43.862;26.176;2023-04-02T08:26:45;99873.84;;;12.14;77.12
33153;BME280;19509;43.862;26.176;2023-04-02T08:29:12;99879.72;;;12.11;76.31
33153;BME280;19509;43.862;26.176;2023-04-02T08:31:37;99881.94;;;12.14;76.24
33153;BME280;19509;43.862;26.176;2023-04-02T08:34:03;99879.09;;;12.21;76.44
33153;BME280;19509;43.862;26.176;2023-04-02T08:36:33;99877.00;;;12.23;75.67
33153;BME280;19509;43.862;26.176;2023-04-02T08:38:59;99879.91;;;12.33;75.94
33153;BME280;19509;43.862;26.176;2023-04-02T08:41:26;99890.97;;;12.60;75.85
33153;BME280;19509;43.862;26.176;2023-04-02T08:46:44;99886.94;;;12.63;75.73
33153;BME280;19509;43.862;26.176;2023-04-02T08:49:29;99888.16;;;12.84;75.39
33153;BME280;19509;43.862;26.176;2023-04-02T08:51:56;99895.06;;;12.91;74.43
33153;BME280;19509;43.862;26.176;2023-04-02T08:54:29;99895.94;;;12.97;75.39
33153;BME280;19509;43.862;26.176;2023-04-02T08:57:08;99897.38;;;13.16;74.00
33153;BME280;19509;43.862;26.176;2023-04-02T08:59:41;99903.75;;;13.39;72.90
33153;BME280;19509;43.862;26.176;2023-04-02T09:02:38;99904.72;;;13.66;72.94
33153;BME280;19509;43.862;26.176;2023-04-02T09:05:08;99915.91;;;13.58;71.96
33153;BME280;19509;43.862;26.176;2023-04-02T09:07:40;99913.97;;;13.54;71.89
33153;BME280;19509;43.862;26.176;2023-04-02T09:10:13;99913.63;;;13.67;70.66
33153;BME280;19509;43.862;26.176;2023-04-02T09:12:40;99909.13;;;13.89;70.46
33153;BME280;19509;43.862;26.176;2023-04-02T09:15:26;99893.22;;;14.15;70.28
33153;BME280;19509;43.862;26.176;2023-04-02T09:18:10;99903.09;;;14.48;70.26
33153;BME280;19509;43.862;26.176;2023-04-02T09:20:37;99899.78;;;14.63;68.37
33153;BME280;19509;43.862;26.176;2023-04-02T09:23:03;99903.59;;;14.67;68.64
33153;BME280;19509;43.862;26.176;2023-04-02T09:25:30;99904.19;;;14.69;67.91
33153;BME280;19509;43.862;26.176;2023-04-02T09:27:59;99902.56;;;14.95;67.16
33153;BME280;19509;43.862;26.176;2023-04-02T09:30:31;99898.69;;;15.18;66.36
33153;BME280;19509;43.862;26.176;2023-04-02T09:33:00;99900.56;;;15.45;66.36
33153;BME280;19509;43.862;26.176;2023-04-02T09:35:30;99896.66;;;15.63;63.83
33153;BME280;19509;43.862;26.176;2023-04-02T09:38:10;99910.69;;;15.92;66.29
33153;BME280;19509;43.862;26.176;2023-04-02T09:46:45;99915.22;;;15.81;63.02
33153;BME280;19509;43.862;26.176;2023-04-02T09:48:49;99920.72;;;15.91;62.01
33153;BME280;19509;43.862;26.176;2023-04-02T09:51:30;99919.69;;;15.65;63.08
33153;BME280;19509;43.862;26.176;2023-04-02T09:56:27;99922.81;;;15.79;63.70
33153;BME280;19509;43.862;26.176;2023-04-02T10:04:45;99925.53;;;15.79;63.06
33153;BME280;19509;43.862;26.176;2023-04-02T10:12:48;99931.06;;;15.94;62.49
33153;BME280;19509;43.862;26.176;2023-04-02T10:15:20;99940.09;;;16.05;61.21
33153;BME280;19509;43.862;26.176;2023-04-02T10:17:58;99926.91;;;16.24;62.78
33153;BME280;19509;43.862;26.176;2023-04-02T10:20:28;99930.47;;;16.35;62.38
33153;BME280;19509;43.862;26.176;2023-04-02T10:22:55;99944.09;;;15.65;61.71
33153;BME280;19509;43.862;26.176;2023-04-02T10:25:24;99940.53;;;15.92;62.64
33153;BME280;19509;43.862;26.176;2023-04-02T10:28:25;99953.84;;;15.93;62.02
33153;BME280;19509;43.862;26.176;2023-04-02T10:31:07;99948.22;;;15.68;62.63
33153;BME280;19509;43.862;26.176;2023-04-02T10:33:39;99952.50;;;15.64;63.10
33153;BME280;19509;43.862;26.176;2023-04-02T10:36:23;99949.75;;;15.58;63.14
33153;BME280;19509;43.862;26.176;2023-04-02T10:39:05;99947.56;;;15.55;63.74
33153;BME280;19509;43.862;26.176;2023-04-02T10:49:34;99946.00;;;15.65;67.01
33153;BME280;19509;43.862;26.176;2023-04-02T10:52:20;99951.00;;;15.73;66.62
33153;BME280;19509;43.862;26.176;2023-04-02T10:54:50;99948.28;;;15.73;65.37
33153;BME280;19509;43.862;26.176;2023-04-02T10:57:21;99943.84;;;15.99;64.64
33153;BME280;19509;43.862;26.176;2023-04-02T10:59:55;99941.91;;;15.94;63.61
33153;BME280;19509;43.862;26.176;2023-04-02T11:04:52;99942.66;;;15.84;62.32
33153;BME280;19509;43.862;26.176;2023-04-02T11:07:23;99940.91;;;15.68;62.47
33153;BME280;19509;43.862;26.176;2023-04-02T11:09:52;99948.72;;;15.97;62.06
33153;BME280;19509;43.862;26.176;2023-04-02T11:12:24;99953.06;;;15.98;61.10
33153;BME280;19509;43.862;26.176;2023-04-02T11:14:54;99947.13;;;16.06;60.99
33153;BME280;19509;43.862;26.176;2023-04-02T11:17:22;99938.41;;;15.99;60.73
33153;BME280;19509;43.862;26.176;2023-04-02T11:19:48;99950.53;;;16.28;60.81
33153;BME280;19509;43.862;26.176;2023-04-02T11:22:21;99951.41;;;16.39;60.11
33153;BME280;19509;43.862;26.176;2023-04-02T11:24:51;99944.06;;;16.35;60.16
33153;BME280;19509;43.862;26.176;2023-04-02T11:27:34;99945.34;;;16.27;60.56
33153;BME280;19509;43.862;26.176;2023-04-02T11:32:46;99937.56;;;16.41;60.05
33153;BME280;19509;43.862;26.176;2023-04-02T11:40:50;99934.19;;;16.76;58.33
33153;BME280;19509;43.862;26.176;2023-04-02T11:48:36;99918.56;;;15.56;62.72
33153;BME280;19509;43.862;26.176;2023-04-02T11:53:50;99916.47;;;16.05;63.04
33153;BME280;19509;43.862;26.176;2023-04-02T11:56:30;99918.69;;;16.71;64.11
33153;BME280;19509;43.862;26.176;2023-04-02T12:07:22;99922.03;;;16.99;59.35
33153;BME280;19509;43.862;26.176;2023-04-02T12:10:00;99919.56;;;16.97;59.29
33153;BME280;19509;43.862;26.176;2023-04-02T12:12:47;99918.78;;;17.89;58.87
33153;BME280;19509;43.862;26.176;2023-04-02T12:15:49;99914.66;;;18.12;56.87
33153;BME280;19509;43.862;26.176;2023-04-02T12:18:22;99908.22;;;18.62;55.62
33153;BME280;19509;43.862;26.176;2023-04-02T12:20:57;99906.06;;;18.54;55.57
33153;BME280;19509;43.862;26.176;2023-04-02T12:23:26;99902.34;;;18.35;57.07
33153;BME280;19509;43.862;26.176;2023-04-02T12:25:58;99904.94;;;17.90;58.02
33153;BME280;19509;43.862;26.176;2023-04-02T12:28:25;99902.22;;;18.60;56.61
33153;BME280;19509;43.862;26.176;2023-04-02T12:31:13;99900.13;;;18.97;54.73
33153;BME280;19509;43.862;26.176;2023-04-02T12:33:42;99900.13;;;18.97;53.79
33153;BME280;19509;43.862;26.176;2023-04-02T12:38:47;99900.56;;;17.89;54.14
33153;BME280;19509;43.862;26.176;2023-04-02T12:41:28;99902.75;;;17.21;59.10
33153;BME280;19509;43.862;26.176;2023-04-02T12:44:15;99896.22;;;17.27;58.66
33153;BME280;19509;43.862;26.176;2023-04-02T12:46:42;99892.69;;;17.21;59.75
33153;BME280;19509;43.862;26.176;2023-04-02T12:51:36;99898.38;;;17.10;60.11
33153;BME280;19509;43.862;26.176;2023-04-02T12:54:03;99886.84;;;16.67;59.33
33153;BME280;19509;43.862;26.176;2023-04-02T12:56:29;99887.31;;;16.43;59.66
33153;BME280;19509;43.862;26.176;2023-04-02T12:58:59;99893.75;;;16.22;60.12
33153;BME280;19509;43.862;26.176;2023-04-02T13:01:30;99892.66;;;16.23;61.00
33153;BME280;19509;43.862;26.176;2023-04-02T13:06:32;99893.50;;;17.32;59.12
33153;BME280;19509;43.862;26.176;2023-04-02T13:09:00;99891.88;;;17.21;57.18
33153;BME280;19509;43.862;26.176;2023-04-02T13:11:37;99887.53;;;17.30;58.30
33153;BME280;19509;43.862;26.176;2023-04-02T13:14:05;99882.88;;;16.90;56.95
33153;BME280;19509;43.862;26.176;2023-04-02T13:16:34;99891.81;;;16.80;60.47
33153;BME280;19509;43.862;26.176;2023-04-02T13:21:41;99881.25;;;17.60;58.79
33153;BME280;19509;43.862;26.176;2023-04-02T13:24:28;99883.38;;;17.99;59.73
33153;BME280;19509;43.862;26.176;2023-04-02T13:26:59;99881.97;;;18.17;58.25
33153;BME280;19509;43.862;26.176;2023-04-02T13:31:53;99889.06;;;18.78;50.44
33153;BME280;19509;43.862;26.176;2023-04-02T13:34:19;99889.38;;;18.76;53.70
33153;BME280;19509;43.862;26.176;2023-04-02T13:36:45;99882.97;;;18.41;57.17
33153;BME280;19509;43.862;26.176;2023-04-02T13:39:11;99877.22;;;18.43;55.60
33153;BME280;19509;43.862;26.176;2023-04-02T13:41:46;99874.28;;;18.34;53.72
33153;BME280;19509;43.862;26.176;2023-04-02T13:44:24;99886.09;;;18.04;56.58
33153;BME280;19509;43.862;26.176;2023-04-02T13:46:50;99879.69;;;18.39;57.71
33153;BME280;19509;43.862;26.176;2023-04-02T13:49:16;99888.59;;;18.60;51.74
33153;BME280;19509;43.862;26.176;2023-04-02T13:51:45;99880.47;;;18.50;53.24
33153;BME280;19509;43.862;26.176;2023-04-02T13:54:17;99877.44;;;18.62;50.30
33153;BME280;19509;43.862;26.176;2023-04-02T13:56:44;99866.31;;;18.48;50.52
33153;BME280;19509;43.862;26.176;2023-04-02T13:59:11;99865.38;;;18.73;52.17
33153;BME280;19509;43.862;26.176;2023-04-02T14:01:37;99871.28;;;18.36;52.20
33153;BME280;19509;43.862;26.176;2023-04-02T14:04:04;99864.25;;;18.19;51.19
33153;BME280;19509;43.862;26.176;2023-04-02T14:09:48;99865.97;;;18.60;48.75
33153;BME280;19509;43.862;26.176;2023-04-02T14:23:08;99860.03;;;17.57;52.01
33153;BME280;19509;43.862;26.176;2023-04-02T14:25:56;99860.03;;;17.62;51.79
33153;BME280;19509;43.862;26.176;2023-04-02T14:28:48;99857.59;;;17.35;51.80
33153;BME280;19509;43.862;26.176;2023-04-02T14:31:35;99858.16;;;17.22;52.38
33153;BME280;19509;43.862;26.176;2023-04-02T14:34:26;99862.78;;;16.96;52.70
33153;BME280;19509;43.862;26.176;2023-04-02T14:37:00;99855.72;;;17.05;52.78
33153;BME280;19509;43.862;26.176;2023-04-02T14:39:54;99850.00;;;16.96;52.96
33153;BME280;19509;43.862;26.176;2023-04-02T14:42:56;99845.38;;;17.07;53.48
33153;BME280;19509;43.862;26.176;2023-04-02T14:45:30;99847.84;;;17.09;52.16
33153;BME280;19509;43.862;26.176;2023-04-02T14:48:03;99856.50;;;16.90;54.23
33153;BME280;19509;43.862;26.176;2023-04-02T14:50:39;99861.41;;;16.93;53.45
33153;BME280;19509;43.862;26.176;2023-04-02T14:53:17;99861.41;;;16.93;53.45
33153;BME280;19509;43.862;26.176;2023-04-02T14:55:45;99855.16;;;16.98;53.74
33153;BME280;19509;43.862;26.176;2023-04-02T14:58:41;99860.03;;;17.01;53.88
33153;BME280;19509;43.862;26.176;2023-04-02T15:01:35;99858.69;;;17.03;56.37
33153;BME280;19509;43.862;26.176;2023-04-02T15:04:16;99862.75;;;17.42;57.81
33153;BME280;19509;43.862;26.176;2023-04-02T15:06:49;99861.94;;;17.57;56.02
33153;BME280;19509;43.862;26.176;2023-04-02T15:09:27;99865.50;;;17.47;57.05
33153;BME280;19509;43.862;26.176;2023-04-02T15:12:07;99862.75;;;17.57;57.40
33153;BME280;19509;43.862;26.176;2023-04-02T15:14:37;99867.13;;;17.27;56.88
33153;BME280;19509;43.862;26.176;2023-04-02T15:17:09;99864.94;;;17.24;55.83
33153;BME280;19509;43.862;26.176;2023-04-02T15:19:35;99872.03;;;17.25;53.56
33153;BME280;19509;43.862;26.176;2023-04-02T15:30:38;99878.03;;;17.33;51.64
33153;BME280;19509;43.862;26.176;2023-04-02T15:38:43;99881.22;;;16.78;53.05
33153;BME280;19509;43.862;26.176;2023-04-02T15:41:19;99886.06;;;16.71;53.15
33153;BME280;19509;43.862;26.176;2023-04-02T15:44:08;99889.78;;;16.50;52.81
33153;BME280;19509;43.862;26.176;2023-04-02T15:55:01;99893.19;;;16.15;54.99
33153;BME280;19509;43.862;26.176;2023-04-02T16:00:17;99898.66;;;16.30;53.90
33153;BME280;19509;43.862;26.176;2023-04-02T16:03:10;99897.56;;;16.26;54.19
33153;BME280;19509;43.862;26.176;2023-04-02T16:11:24;99900.00;;;16.22;53.80
33153;BME280;19509;43.862;26.176;2023-04-02T16:13:51;99907.84;;;16.14;54.43
33153;BME280;19509;43.862;26.176;2023-04-02T16:16:33;99920.75;;;15.96;54.48
33153;BME280;19509;43.862;26.176;2023-04-02T16:19:24;99918.69;;;15.71;55.79
33153;BME280;19509;43.862;26.176;2023-04-02T16:24:48;99928.06;;;15.26;56.83
33153;BME280;19509;43.862;26.176;2023-04-02T16:35:45;99929.25;;;14.59;58.29
33153;BME280;19509;43.862;26.176;2023-04-02T16:41:44;99935.25;;;14.23;59.88
33153;BME280;19509;43.862;26.176;2023-04-02T16:49:28;99953.53;;;13.77;62.12